Time;durP1;ratioP1;P1;durP2;ratioP2;P2;SDS_P1;SDS_P2;PMS_P1;PMS_P2;Temp;Humidity;BMP_temperature;BMP_pressure;BME280_temperature;BME280_humidity;BME280_pressure;Samples;Min_cycle;Max_cycle;Signal;HPM_P1;HPM_P2
2023/06/21 00:01:58;;;;;;;;;;;;;;;19.38;70.45;101088.21;107412;1254;99153;-68
2023/06/21 00:04:26;;;;;;;;;;;;;;;19.33;70.48;101090.01;107372;1254;113268;-71
2023/06/21 00:06:53;;;;;;;;;;;;;;;19.30;70.96;101097.67;107440;1254;109884;-69
2023/06/21 00:09:22;;;;;;;;;;;;;;;19.27;71.23;101104.70;107375;1254;107358;-67
2023/06/21 00:11:50;;;;;;;;;;;;;;;19.26;70.99;101108.62;107394;1254;99297;-65
2023/06/21 00:14:18;;;;;;;;;;;;;;;19.21;71.35;101112.69;107390;1254;99290;-69
2023/06/21 00:16:46;;;;;;;;;;;;;;;19.16;71.47;101116.22;107399;1254;112940;-67
2023/06/21 00:19:14;;;;;;;;;;;;;;;19.14;71.42;101114.29;107403;1254;109243;-66
2023/06/21 00:21:42;;;;;;;;;;;;;;;19.11;71.43;101114.08;107412;1257;108290;-68
2023/06/21 00:24:11;;;;;;;;;;;;;;;19.08;71.45;101113.63;107383;1254;99272;-68
2023/06/21 00:26:39;;;;;;;;;;;;;;;19.06;71.60;101114.79;107405;1254;99253;-68
2023/06/21 00:29:09;;;;;;;;;;;;;;;19.02;72.31;101117.29;107306;1254;113385;-66
2023/06/21 00:31:37;;;;;;;;;;;;;;;18.94;72.62;101115.75;107310;1254;109433;-68
2023/06/21 00:34:06;;;;;;;;;;;;;;;18.86;73.07;101113.92;107416;1254;108126;-68
2023/06/21 00:36:36;;;;;;;;;;;;;;;18.78;72.92;101118.42;107352;1254;99163;-67
2023/06/21 00:39:05;;;;;;;;;;;;;;;18.73;72.89;101118.55;107335;1259;99166;-70
2023/06/21 00:41:33;;;;;;;;;;;;;;;18.71;72.85;101122.71;107275;1254;113291;-66
2023/06/21 00:44:02;;;;;;;;;;;;;;;18.75;72.68;101131.92;107311;1254;109699;-67
2023/06/21 00:46:30;;;;;;;;;;;;;;;18.80;72.92;101134.65;107408;1257;107298;-68
2023/06/21 00:48:58;;;;;;;;;;;;;;;18.81;73.00;101137.56;107346;1254;99202;-65
2023/06/21 00:51:27;;;;;;;;;;;;;;;18.84;73.07;101135.91;107407;1254;99086;-67
2023/06/21 00:53:56;;;;;;;;;;;;;;;18.87;73.11;101137.73;107431;1254;113946;-67
2023/06/21 00:56:24;;;;;;;;;;;;;;;18.90;72.95;101140.12;107415;1254;110115;-67
2023/06/21 00:58:52;;;;;;;;;;;;;;;18.92;73.01;101146.42;107387;1254;108037;-67
2023/06/21 01:01:20;;;;;;;;;;;;;;;18.92;72.79;101147.58;107387;1254;99185;-66
2023/06/21 01:03:50;;;;;;;;;;;;;;;18.91;72.56;101147.06;107392;1257;99061;-67
2023/06/21 01:06:24;;;;;;;;;;;;;;;18.88;72.28;101148.38;107419;1253;113012;-66
2023/06/21 01:08:55;;;;;;;;;;;;;;;18.85;72.36;101147.28;107284;1254;109591;-67
2023/06/21 01:11:28;;;;;;;;;;;;;;;18.84;72.36;101153.55;107248;1254;107776;-67
2023/06/21 01:14:15;;;;;;;;;;;;;;;18.84;72.45;101153.05;107235;1254;99204;-66
2023/06/21 01:16:47;;;;;;;;;;;;;;;18.81;72.51;101155.90;107253;1259;99179;-67
2023/06/21 01:19:24;;;;;;;;;;;;;;;18.80;72.96;101160.06;107159;1257;113285;-66
2023/06/21 01:21:53;;;;;;;;;;;;;;;18.71;72.99;101159.77;107405;1258;110454;-66
2023/06/21 01:24:29;;;;;;;;;;;;;;;18.65;72.91;101165.36;107409;1255;107256;-69
2023/06/21 01:27:03;;;;;;;;;;;;;;;18.60;72.77;101168.58;107369;1254;99195;-69
2023/06/21 01:29:33;;;;;;;;;;;;;;;18.57;73.11;101168.02;107447;1254;99168;-68
2023/06/21 01:32:02;;;;;;;;;;;;;;;18.55;73.23;101170.41;107454;1254;113016;-68
2023/06/21 01:34:32;;;;;;;;;;;;;;;18.55;73.31;101171.80;107394;1254;108374;-67
2023/06/21 01:37:00;;;;;;;;;;;;;;;18.57;73.60;101174.30;107366;1254;108558;-67
2023/06/21 01:39:29;;;;;;;;;;;;;;;18.58;73.42;101172.36;107429;1254;99144;-67
2023/06/21 01:41:58;;;;;;;;;;;;;;;18.58;73.21;101171.86;107379;1254;99178;-67
2023/06/21 01:44:27;;;;;;;;;;;;;;;18.57;72.97;101169.95;107389;1254;113098;-68
2023/06/21 01:46:57;;;;;;;;;;;;;;;18.55;72.89;101168.00;107388;1254;109655;-69
2023/06/21 01:49:28;;;;;;;;;;;;;;;18.53;72.71;101167.14;107290;1254;108299;-72
2023/06/21 01:51:56;;;;;;;;;;;;;;;18.50;72.85;101168.59;107370;1254;99182;-68
2023/06/21 01:54:26;;;;;;;;;;;;;;;18.46;73.17;101168.65;107389;1253;99165;-66
2023/06/21 01:56:59;;;;;;;;;;;;;;;18.45;73.14;101174.91;107402;1254;113465;-68
2023/06/21 01:59:28;;;;;;;;;;;;;;;18.46;73.17;101176.73;107292;1254;109522;-68
2023/06/21 02:02:01;;;;;;;;;;;;;;;18.45;73.42;101186.40;107322;1259;107648;-67
2023/06/21 02:04:30;;;;;;;;;;;;;;;18.46;73.59;101181.77;107418;1254;99247;-66
2023/06/21 02:07:02;;;;;;;;;;;;;;;18.47;73.87;101181.14;107384;1254;99205;-66
2023/06/21 02:09:31;;;;;;;;;;;;;;;18.40;73.80;101180.70;107395;1254;113153;-66
2023/06/21 02:12:00;;;;;;;;;;;;;;;18.33;73.67;101186.53;107410;1253;109769;-68
2023/06/21 02:14:29;;;;;;;;;;;;;;;18.31;73.89;101184.38;107365;1254;108224;-66
2023/06/21 02:16:57;;;;;;;;;;;;;;;18.32;74.03;101178.02;107338;1254;99222;-67
2023/06/21 02:19:26;;;;;;;;;;;;;;;18.24;74.84;101182.27;107302;1254;99240;-66
2023/06/21 02:21:54;;;;;;;;;;;;;;;18.10;75.99;101180.08;107428;1254;113152;-67
2023/06/21 02:24:22;;;;;;;;;;;;;;;17.96;76.23;101186.95;107402;1254;110056;-67
2023/06/21 02:26:50;;;;;;;;;;;;;;;17.87;75.99;101187.58;107391;1254;108508;-67
2023/06/21 02:29:18;;;;;;;;;;;;;;;17.80;76.40;101194.63;107263;1254;99870;-67
2023/06/21 02:31:46;;;;;;;;;;;;;;;17.76;77.44;101195.30;107423;1253;99067;-67
2023/06/21 02:34:15;;;;;;;;;;;;;;;17.69;77.70;101196.67;107375;1255;112593;-68
2023/06/21 02:36:52;;;;;;;;;;;;;;;17.65;77.49;101197.42;107403;1254;109517;-66
2023/06/21 02:39:22;;;;;;;;;;;;;;;17.70;77.26;101199.22;107383;1253;107916;-67
2023/06/21 02:41:54;;;;;;;;;;;;;;;17.77;77.40;101199.24;107375;1253;99172;-67
2023/06/21 02:44:23;;;;;;;;;;;;;;;17.82;77.26;101197.65;107380;1254;99205;-68
2023/06/21 02:46:51;;;;;;;;;;;;;;;17.86;78.06;101198.77;107413;1254;113150;-66
2023/06/21 02:49:19;;;;;;;;;;;;;;;17.79;78.68;101196.23;107350;1254;109307;-68
2023/06/21 02:51:50;;;;;;;;;;;;;;;17.64;79.31;101190.24;107378;1254;107334;-69
2023/06/21 02:54:18;;;;;;;;;;;;;;;17.52;81.06;101191.32;107397;1257;99160;-66
2023/06/21 02:56:46;;;;;;;;;;;;;;;17.39;82.16;101188.71;107446;1254;99179;-68
2023/06/21 02:59:15;;;;;;;;;;;;;;;17.33;81.42;101187.39;107388;1254;113218;-67
2023/06/21 03:01:46;;;;;;;;;;;;;;;17.33;81.44;101195.08;107420;1253;109418;-67
2023/06/21 03:04:16;;;;;;;;;;;;;;;17.39;81.12;101202.38;107405;1254;108772;-67
2023/06/21 03:06:45;;;;;;;;;;;;;;;17.49;80.80;101205.57;107407;1254;99166;-68
2023/06/21 03:09:14;;;;;;;;;;;;;;;17.60;80.16;101206.91;107423;1257;99073;-68
2023/06/21 03:11:44;;;;;;;;;;;;;;;17.70;79.96;101205.65;107285;1258;113279;-68
2023/06/21 03:14:12;;;;;;;;;;;;;;;17.77;79.68;101206.58;107290;1254;110039;-67
2023/06/21 03:16:41;;;;;;;;;;;;;;;17.84;79.49;101206.20;107401;1254;107550;-67
2023/06/21 03:19:09;;;;;;;;;;;;;;;17.84;80.13;101204.73;107360;1253;99263;-66
2023/06/21 03:21:40;;;;;;;;;;;;;;;17.75;81.27;101203.35;107387;1254;99234;-66
2023/06/21 03:24:09;;;;;;;;;;;;;;;17.67;81.24;101205.71;107460;1254;113074;-66
2023/06/21 03:26:37;;;;;;;;;;;;;;;17.62;81.45;101201.77;107415;1257;110721;-67
2023/06/21 03:29:06;;;;;;;;;;;;;;;17.59;81.77;101204.27;107401;1254;107559;-66
2023/06/21 03:31:35;;;;;;;;;;;;;;;17.56;81.73;101208.11;107422;1254;99186;-68
2023/06/21 03:34:03;;;;;;;;;;;;;;;17.57;81.45;101209.09;107379;1254;99246;-67
2023/06/21 03:36:31;;;;;;;;;;;;;;;17.60;81.68;101208.71;107456;1254;112286;-66
2023/06/21 03:39:00;;;;;;;;;;;;;;;17.60;82.68;101208.92;107270;1255;109320;-68
2023/06/21 03:41:29;;;;;;;;;;;;;;;17.60;82.57;101209.30;107246;1254;107648;-67
2023/06/21 03:43:57;;;;;;;;;;;;;;;17.56;83.32;101209.16;107358;1254;99186;-67
2023/06/21 03:46:25;;;;;;;;;;;;;;;17.55;83.28;101208.04;107323;1254;99185;-66
2023/06/21 03:48:54;;;;;;;;;;;;;;;17.55;82.95;101215.96;107388;1254;112570;-65
2023/06/21 03:51:23;;;;;;;;;;;;;;;17.58;83.10;101221.30;107375;1254;109251;-69
2023/06/21 03:53:52;;;;;;;;;;;;;;;17.61;82.90;101226.52;107397;1254;108090;-66
2023/06/21 03:56:20;;;;;;;;;;;;;;;17.67;82.82;101226.26;107356;1254;99256;-67
2023/06/21 03:58:48;;;;;;;;;;;;;;;17.75;82.61;101234.45;107325;1254;99090;-67
2023/06/21 04:01:16;;;;;;;;;;;;;;;17.86;82.37;101233.54;107363;1254;112759;-65
2023/06/21 04:03:44;;;;;;;;;;;;;;;17.97;82.31;101224.04;107364;1254;109274;-67
2023/06/21 04:06:13;;;;;;;;;;;;;;;18.02;82.10;101223.46;107373;1254;108739;-66
2023/06/21 04:08:41;;;;;;;;;;;;;;;18.03;81.93;101222.95;107180;1257;99295;-69
2023/06/21 04:11:10;;;;;;;;;;;;;;;18.06;81.93;101223.69;107314;1257;99187;-66
2023/06/21 04:13:38;;;;;;;;;;;;;;;18.10;81.72;101220.72;107365;1257;112036;-68
2023/06/21 04:16:06;;;;;;;;;;;;;;;18.15;81.70;101221.48;107357;1254;109611;-67
2023/06/21 04:18:34;;;;;;;;;;;;;;;18.17;82.15;101222.30;107183;1260;108413;-66
2023/06/21 04:21:02;;;;;;;;;;;;;;;18.20;81.87;101230.19;107138;1257;99334;-67
2023/06/21 04:23:32;;;;;;;;;;;;;;;18.21;82.58;101230.07;107367;1254;99061;-67
2023/06/21 04:26:00;;;;;;;;;;;;;;;18.19;82.91;101231.95;107373;1257;114060;-68
2023/06/21 04:28:29;;;;;;;;;;;;;;;18.19;82.80;101232.64;107387;1254;109665;-66
2023/06/21 04:30:58;;;;;;;;;;;;;;;18.18;82.98;101228.15;107192;1256;107301;-66
2023/06/21 04:33:28;;;;;;;;;;;;;;;18.20;82.79;101227.96;107347;1254;99272;-67
2023/06/21 04:35:57;;;;;;;;;;;;;;;18.22;82.47;101227.14;107357;1254;99182;-66
2023/06/21 04:38:26;;;;;;;;;;;;;;;18.26;82.41;101229.84;107372;1254;111662;-66
2023/06/21 04:40:54;;;;;;;;;;;;;;;18.29;82.43;101231.48;107324;1255;109098;-67
2023/06/21 04:43:25;;;;;;;;;;;;;;;18.34;82.57;101235.65;107269;1258;108273;-68
2023/06/21 04:45:53;;;;;;;;;;;;;;;18.38;82.49;101237.20;107341;1256;99345;-67
2023/06/21 04:48:24;;;;;;;;;;;;;;;18.43;82.56;101241.70;107298;1254;99361;-69
2023/06/21 04:50:53;;;;;;;;;;;;;;;18.47;82.54;101240.08;107215;1254;112655;-67
2023/06/21 04:53:28;;;;;;;;;;;;;;;18.52;82.39;101243.16;107364;1254;109691;-68
2023/06/21 04:55:57;;;;;;;;;;;;;;;18.57;82.47;101246.23;107320;1257;107945;-69
2023/06/21 04:58:25;;;;;;;;;;;;;;;18.62;82.42;101245.36;107332;1254;99038;-68
2023/06/21 05:00:55;;;;;;;;;;;;;;;18.64;81.99;101243.44;107360;1257;99175;-69
2023/06/21 05:03:23;;;;;;;;;;;;;;;18.64;81.69;101238.75;107418;1253;112989;-68
2023/06/21 05:05:51;;;;;;;;;;;;;;;18.68;81.68;101232.48;107353;1254;109578;-68
2023/06/21 05:08:20;;;;;;;;;;;;;;;18.71;81.88;101231.55;107331;1254;108392;-69
2023/06/21 05:10:48;;;;;;;;;;;;;;;18.73;81.55;101234.46;107305;1254;99169;-69
2023/06/21 05:13:16;;;;;;;;;;;;;;;18.76;81.34;101232.61;107051;1255;99177;-69
2023/06/21 05:15:45;;;;;;;;;;;;;;;18.84;81.12;101234.95;107338;1254;113099;-68
2023/06/21 05:18:13;;;;;;;;;;;;;;;18.94;80.99;101235.25;107483;1254;108945;-68
2023/06/21 05:20:41;;;;;;;;;;;;;;;19.06;81.08;101242.45;107421;1254;108254;-69
2023/06/21 05:23:10;;;;;;;;;;;;;;;19.14;80.99;101246.45;107451;1254;99179;-68
2023/06/21 05:25:38;;;;;;;;;;;;;;;19.22;80.79;101248.40;107399;1254;99167;-69
2023/06/21 05:28:06;;;;;;;;;;;;;;;19.30;80.44;101252.83;107281;1254;113131;-70
2023/06/21 05:30:34;;;;;;;;;;;;;;;19.41;80.40;101246.72;107350;1254;109260;-69
2023/06/21 05:33:03;;;;;;;;;;;;;;;19.50;80.50;101243.61;107367;1253;108183;-68
2023/06/21 05:35:32;;;;;;;;;;;;;;;19.59;80.26;101241.83;107347;1254;99225;-66
2023/06/21 05:38:00;;;;;;;;;;;;;;;19.67;80.32;101240.68;107406;1254;99141;-71
2023/06/21 05:40:28;;;;;;;;;;;;;;;19.72;80.20;101242.25;107405;1254;113754;-68
2023/06/21 05:43:01;;;;;;;;;;;;;;;19.77;79.76;101244.28;107325;1259;110317;-70
2023/06/21 05:45:30;;;;;;;;;;;;;;;19.83;79.44;101249.35;107340;1254;108139;-69
2023/06/21 05:47:59;;;;;;;;;;;;;;;19.89;79.11;101248.70;107299;1254;99190;-69
2023/06/21 05:50:31;;;;;;;;;;;;;;;19.93;78.57;101241.94;107376;1254;99166;-69
2023/06/21 05:52:59;;;;;;;;;;;;;;;20.01;78.10;101242.88;107299;1254;113591;-70
2023/06/21 05:55:28;;;;;;;;;;;;;;;20.06;77.63;101247.36;107428;1254;109404;-69
2023/06/21 05:57:56;;;;;;;;;;;;;;;20.13;77.54;101239.88;107381;1254;108218;-68
2023/06/21 06:00:23;;;;;;;;;;;;;;;20.22;77.34;101241.96;107365;1254;99166;-70
2023/06/21 06:02:52;;;;;;;;;;;;;;;20.27;76.63;101239.69;107417;1254;99058;-70
2023/06/21 06:05:20;;;;;;;;;;;;;;;20.35;75.71;101239.23;107393;1257;113420;-70
2023/06/21 06:07:48;;;;;;;;;;;;;;;20.40;75.12;101240.23;107311;1254;109680;-69
2023/06/21 06:10:16;;;;;;;;;;;;;;;20.43;75.01;101241.70;107394;1254;108177;-69
2023/06/21 06:12:45;;;;;;;;;;;;;;;20.48;74.98;101242.61;107450;1254;99167;-68
2023/06/21 06:15:13;;;;;;;;;;;;;;;20.55;74.75;101246.65;107437;1253;99160;-69
2023/06/21 06:17:41;;;;;;;;;;;;;;;20.63;74.08;101249.31;107425;1253;112787;-68
2023/06/21 06:20:10;;;;;;;;;;;;;;;20.69;73.71;101252.61;107394;1254;109165;-70
2023/06/21 06:22:39;;;;;;;;;;;;;;;20.73;73.37;101256.82;107419;1254;107862;-69
2023/06/21 06:25:09;;;;;;;;;;;;;;;20.77;72.73;101255.80;107376;1257;99330;-69
2023/06/21 06:27:38;;;;;;;;;;;;;;;20.83;72.63;101255.92;107426;1254;99055;-69
2023/06/21 06:30:07;;;;;;;;;;;;;;;20.86;71.18;101260.25;107411;1254;113599;-69
2023/06/21 06:32:35;;;;;;;;;;;;;;;20.82;70.63;101263.20;107400;1254;109885;-69
2023/06/21 06:35:03;;;;;;;;;;;;;;;20.83;70.95;101261.78;107418;1254;106494;-72
2023/06/21 06:37:31;;;;;;;;;;;;;;;20.89;70.97;101260.84;107424;1254;99435;-68
2023/06/21 06:40:00;;;;;;;;;;;;;;;21.02;70.31;101258.54;107410;1254;99258;-65
2023/06/21 06:42:28;;;;;;;;;;;;;;;21.10;70.32;101252.73;107405;1254;112604;-67
2023/06/21 06:44:56;;;;;;;;;;;;;;;21.19;70.00;101261.80;107413;1253;109486;-68
2023/06/21 06:47:24;;;;;;;;;;;;;;;21.26;68.67;101261.81;107256;1254;109019;-67
2023/06/21 06:49:53;;;;;;;;;;;;;;;21.33;68.28;101263.27;107402;1254;99201;-71
2023/06/21 06:52:21;;;;;;;;;;;;;;;21.37;68.04;101264.83;107459;1254;99744;-69
2023/06/21 06:54:49;;;;;;;;;;;;;;;21.42;67.72;101265.30;107462;1254;112970;-68
2023/06/21 06:57:17;;;;;;;;;;;;;;;21.52;67.31;101262.95;107416;1254;109758;-67
2023/06/21 07:00:05;;;;;;;;;;;;;;;21.63;67.24;101266.34;107376;1254;107434;-67
2023/06/21 07:02:34;;;;;;;;;;;;;;;21.72;66.97;101271.52;107297;1256;99201;-67
2023/06/21 07:05:02;;;;;;;;;;;;;;;21.79;67.48;101277.81;107411;1257;99195;-67
2023/06/21 07:07:30;;;;;;;;;;;;;;;21.88;67.65;101277.50;107385;1254;113058;-66
2023/06/21 07:10:00;;;;;;;;;;;;;;;22.06;66.59;101279.44;107441;1254;109412;-67
2023/06/21 07:12:28;;;;;;;;;;;;;;;22.13;66.27;101282.15;107380;1254;108538;-67
2023/06/21 07:14:56;;;;;;;;;;;;;;;22.21;65.99;101284.77;107282;1255;99952;-67
2023/06/21 07:17:25;;;;;;;;;;;;;;;22.34;65.27;101282.81;107404;1254;99071;-67
2023/06/21 07:19:54;;;;;;;;;;;;;;;22.43;64.04;101294.07;107422;1254;112607;-68
2023/06/21 07:22:22;;;;;;;;;;;;;;;22.43;63.96;101293.65;107467;1253;109216;-69
2023/06/21 07:24:51;;;;;;;;;;;;;;;22.53;63.53;101288.48;107478;1254;108428;-68
2023/06/21 07:27:19;;;;;;;;;;;;;;;22.63;62.99;101287.73;107310;1254;99146;-66
2023/06/21 07:29:48;;;;;;;;;;;;;;;22.71;62.59;101288.73;107469;1253;99324;-67
2023/06/21 07:32:16;;;;;;;;;;;;;;;22.78;63.71;101284.36;107425;1254;112281;-66
2023/06/21 07:34:44;;;;;;;;;;;;;;;22.80;62.59;101291.02;107442;1254;109719;-70
2023/06/21 07:37:12;;;;;;;;;;;;;;;22.79;62.75;101296.27;107511;1253;108360;-66
2023/06/21 07:39:41;;;;;;;;;;;;;;;22.81;62.75;101297.47;107542;1253;99194;-68
2023/06/21 07:42:22;;;;;;;;;;;;;;;22.83;62.34;101295.19;107439;1254;99166;-67
2023/06/21 07:44:56;;;;;;;;;;;;;;;22.81;62.90;101298.30;107400;1254;113229;-67
2023/06/21 07:47:25;;;;;;;;;;;;;;;22.89;63.26;101296.23;107455;1254;109230;-67
2023/06/21 07:49:53;;;;;;;;;;;;;;;22.99;64.12;101299.30;107564;1253;107682;-67
2023/06/21 07:52:21;;;;;;;;;;;;;;;23.04;64.12;101297.92;107396;1254;99295;-66
2023/06/21 07:54:50;;;;;;;;;;;;;;;22.98;63.88;101301.70;107413;1254;99061;-67
2023/06/21 07:57:18;;;;;;;;;;;;;;;22.91;63.79;101296.73;107445;1254;113551;-67
2023/06/21 07:59:46;;;;;;;;;;;;;;;22.85;64.08;101295.66;107423;1254;108945;-67
2023/06/21 08:02:17;;;;;;;;;;;;;;;22.73;64.46;101295.91;106684;1254;937726;-66
2023/06/21 08:04:46;;;;;;;;;;;;;;;22.72;64.02;101292.58;107370;1253;99200;-66
2023/06/21 08:07:14;;;;;;;;;;;;;;;22.77;63.11;101292.50;107419;1253;99290;-69
2023/06/21 08:09:43;;;;;;;;;;;;;;;22.89;61.46;101288.49;107437;1254;112664;-66
2023/06/21 08:12:13;;;;;;;;;;;;;;;23.03;59.58;101291.45;107453;1254;110254;-67
2023/06/21 08:14:41;;;;;;;;;;;;;;;23.07;58.81;101294.55;107433;1254;107685;-66
2023/06/21 08:17:09;;;;;;;;;;;;;;;23.11;57.91;101292.41;107396;1254;99064;-68
2023/06/21 08:19:37;;;;;;;;;;;;;;;23.16;58.39;101293.22;107452;1254;99230;-66
2023/06/21 08:22:08;;;;;;;;;;;;;;;23.20;58.15;101294.54;107423;1254;112680;-68
2023/06/21 08:24:36;;;;;;;;;;;;;;;23.24;58.28;101292.56;107436;1254;109028;-65
2023/06/21 08:27:04;;;;;;;;;;;;;;;23.34;57.94;101291.09;107425;1254;108379;-68
2023/06/21 08:29:33;;;;;;;;;;;;;;;23.42;58.10;101288.02;107417;1254;99166;-67
2023/06/21 08:32:01;;;;;;;;;;;;;;;23.47;58.88;101291.23;107396;1254;99172;-68
2023/06/21 08:34:30;;;;;;;;;;;;;;;23.54;58.60;101289.89;107468;1254;112797;-71
2023/06/21 08:36:58;;;;;;;;;;;;;;;23.61;58.78;101292.44;107420;1253;109099;-68
2023/06/21 08:39:27;;;;;;;;;;;;;;;23.66;58.02;101293.29;107419;1254;108756;-67
2023/06/21 08:41:59;;;;;;;;;;;;;;;23.75;58.10;101290.20;107409;1254;99275;-66
2023/06/21 08:44:27;;;;;;;;;;;;;;;23.84;58.25;101293.41;107395;1254;99259;-67
2023/06/21 08:46:56;;;;;;;;;;;;;;;23.92;57.26;101290.54;107441;1254;113344;-66
2023/06/21 08:49:25;;;;;;;;;;;;;;;24.02;57.28;101288.73;107490;1254;109342;-66
2023/06/21 08:51:55;;;;;;;;;;;;;;;24.03;57.25;101288.67;107408;1254;106571;-69
2023/06/21 08:54:24;;;;;;;;;;;;;;;24.13;56.77;101286.27;107432;1254;99160;-67
2023/06/21 08:57:14;;;;;;;;;;;;;;;24.26;57.33;101284.08;107506;1254;99186;-68
2023/06/21 08:59:59;;;;;;;;;;;;;;;24.47;55.78;101285.80;107458;1254;112764;-66
2023/06/21 09:02:43;;;;;;;;;;;;;;;24.58;54.78;101291.05;107455;1254;110163;-69
2023/06/21 09:05:16;;;;;;;;;;;;;;;24.72;54.65;101288.70;107465;1254;108511;-67
2023/06/21 09:07:45;;;;;;;;;;;;;;;24.89;54.46;101287.27;107463;1254;99203;-67
2023/06/21 09:10:16;;;;;;;;;;;;;;;25.11;53.77;101288.08;107494;1253;99268;-68
2023/06/21 09:12:44;;;;;;;;;;;;;;;25.36;53.10;101292.59;107438;1257;112246;-68
2023/06/21 09:15:15;;;;;;;;;;;;;;;25.63;52.85;101294.40;107475;1254;109872;-69
2023/06/21 09:17:44;;;;;;;;;;;;;;;25.88;51.98;101297.80;107460;1254;108321;-68
2023/06/21 09:20:27;;;;;;;;;;;;;;;26.07;50.65;101293.05;107273;1254;99166;-67
2023/06/21 09:22:59;;;;;;;;;;;;;;;26.23;50.65;101293.64;107481;1254;99067;-68
2023/06/21 09:25:28;;;;;;;;;;;;;;;26.18;49.87;101297.67;107446;1254;112372;-70
2023/06/21 09:27:56;;;;;;;;;;;;;;;26.26;49.41;101294.33;107440;1254;109484;-69
2023/06/21 09:30:24;;;;;;;;;;;;;;;26.49;48.84;101289.01;107460;1257;107354;-66
2023/06/21 09:32:56;;;;;;;;;;;;;;;26.79;48.93;101291.98;107459;1254;99265;-69
2023/06/21 09:35:24;;;;;;;;;;;;;;;27.04;47.33;101293.52;107501;1254;99183;-68
2023/06/21 09:37:53;;;;;;;;;;;;;;;27.20;47.30;101292.20;107456;1254;113412;-68
2023/06/21 09:40:22;;;;;;;;;;;;;;;27.52;46.43;101292.32;107312;1254;109571;-71
2023/06/21 09:42:50;;;;;;;;;;;;;;;27.76;45.84;101288.06;107448;1254;107872;-68
2023/06/21 09:45:19;;;;;;;;;;;;;;;27.99;45.48;101291.15;107465;1254;99298;-66
2023/06/21 09:47:47;;;;;;;;;;;;;;;28.27;46.24;101287.42;107492;1254;99054;-68
2023/06/21 09:50:16;;;;;;;;;;;;;;;28.60;45.24;101287.25;107413;1257;112313;-67
2023/06/21 09:52:45;;;;;;;;;;;;;;;28.95;44.37;101278.73;107428;1254;109218;-68
2023/06/21 09:55:14;;;;;;;;;;;;;;;29.23;43.31;101278.31;107466;1257;107714;-66
2023/06/21 09:57:42;;;;;;;;;;;;;;;29.39;43.25;101278.38;107460;1254;99170;-67
2023/06/21 10:00:10;;;;;;;;;;;;;;;29.72;41.65;101269.62;107446;1255;99191;-67
2023/06/21 10:02:43;;;;;;;;;;;;;;;29.99;40.87;101275.09;107441;1254;112918;-69
2023/06/21 10:05:16;;;;;;;;;;;;;;;30.23;40.69;101270.23;107429;1254;109457;-70
2023/06/21 10:07:45;;;;;;;;;;;;;;;30.51;39.40;101264.67;107404;1254;109566;-68
2023/06/21 10:10:13;;;;;;;;;;;;;;;30.73;38.80;101268.50;107472;1254;99224;-67
2023/06/21 10:12:54;;;;;;;;;;;;;;;30.90;38.56;101266.07;107418;1254;99140;-68
2023/06/21 10:15:23;;;;;;;;;;;;;;;30.62;38.81;101262.02;107488;1258;112632;-67
2023/06/21 10:17:55;;;;;;;;;;;;;;;30.61;39.04;101263.73;107460;1254;109764;-70
2023/06/21 10:20:35;;;;;;;;;;;;;;;31.07;38.82;101263.14;107443;1254;108305;-68
2023/06/21 10:23:04;;;;;;;;;;;;;;;31.43;38.04;101260.65;107454;1254;99175;-69
2023/06/21 10:25:33;;;;;;;;;;;;;;;31.65;37.82;101254.39;107324;1254;99094;-68
2023/06/21 10:28:07;;;;;;;;;;;;;;;32.19;36.41;101254.14;107478;1254;111859;-70
2023/06/21 10:30:37;;;;;;;;;;;;;;;32.77;35.38;101251.83;107424;1254;109944;-68
2023/06/21 10:33:06;;;;;;;;;;;;;;;33.37;34.67;101245.86;107419;1254;108350;-67
2023/06/21 10:35:36;;;;;;;;;;;;;;;33.77;33.24;101246.97;107482;1253;99064;-68
2023/06/21 10:38:14;;;;;;;;;;;;;;;34.05;33.49;101241.84;107435;1254;99157;-69
2023/06/21 10:40:43;;;;;;;;;;;;;;;34.40;33.12;101242.79;107455;1254;112768;-67
2023/06/21 10:43:11;;;;;;;;;;;;;;;34.75;33.02;101240.15;107456;1254;109977;-68
2023/06/21 10:45:40;;;;;;;;;;;;;;;35.19;32.79;101241.88;107436;1254;107665;-67
2023/06/21 10:48:09;;;;;;;;;;;;;;;35.58;31.58;101236.76;107434;1254;99957;-67
2023/06/21 10:50:41;;;;;;;;;;;;;;;36.05;30.67;101234.39;107456;1254;99180;-66
2023/06/21 10:53:11;;;;;;;;;;;;;;;36.35;29.82;101233.48;107447;1254;112393;-67
2023/06/21 10:55:41;;;;;;;;;;;;;;;36.65;28.28;101233.59;107458;1254;109055;-67
2023/06/21 10:58:10;;;;;;;;;;;;;;;36.78;28.51;101232.61;107430;1254;107692;-67
2023/06/21 11:00:39;;;;;;;;;;;;;;;36.67;29.10;101235.39;107428;1254;99173;-66
2023/06/21 11:03:12;;;;;;;;;;;;;;;37.12;28.76;101231.05;107446;1254;99178;-66
2023/06/21 11:05:41;;;;;;;;;;;;;;;37.56;27.82;101227.40;107374;1254;113567;-66
2023/06/21 11:08:09;;;;;;;;;;;;;;;37.83;28.23;101227.50;107473;1254;109222;-67
2023/06/21 11:10:46;;;;;;;;;;;;;;;37.30;27.50;101227.09;107461;1254;108166;-65
2023/06/21 11:13:16;;;;;;;;;;;;;;;36.55;28.25;101235.29;107421;1254;99952;-66
2023/06/21 11:15:47;;;;;;;;;;;;;;;36.18;28.48;101227.55;107461;1254;99053;-66
2023/06/21 11:18:19;;;;;;;;;;;;;;;35.66;28.22;101227.57;107444;1259;113212;-67
2023/06/21 11:20:49;;;;;;;;;;;;;;;34.99;28.77;101226.94;107423;1254;109651;-68
2023/06/21 11:23:19;;;;;;;;;;;;;;;34.39;29.75;101226.87;107448;1254;107633;-68
2023/06/21 11:25:50;;;;;;;;;;;;;;;33.75;30.39;101226.77;107398;1254;99170;-68
2023/06/21 11:28:26;;;;;;;;;;;;;;;33.79;30.84;101223.25;107397;1254;99164;-69
2023/06/21 11:31:07;;;;;;;;;;;;;;;34.59;30.99;101224.58;107400;1254;113558;-68
2023/06/21 11:33:46;;;;;;;;;;;;;;;35.38;29.88;101223.95;107440;1258;109198;-71
2023/06/21 11:36:17;;;;;;;;;;;;;;;35.18;29.29;101221.92;107403;1254;107881;-68
2023/06/21 11:38:57;;;;;;;;;;;;;;;35.06;28.87;101208.94;107411;1254;99305;-70
2023/06/21 11:41:55;;;;;;;;;;;;;;;35.28;27.47;101213.00;107424;1254;99178;-68
2023/06/21 11:44:25;;;;;;;;;;;;;;;35.47;28.28;101203.45;107405;1254;113203;-67
2023/06/21 11:47:05;;;;;;;;;;;;;;;36.05;27.55;101203.41;107420;1254;109692;-66
2023/06/21 11:49:33;;;;;;;;;;;;;;;36.48;26.72;101201.37;107419;1254;108498;-65
2023/06/21 11:52:03;;;;;;;;;;;;;;;37.02;26.48;101199.56;107399;1258;99174;-67
2023/06/21 11:54:34;;;;;;;;;;;;;;;37.70;26.21;101204.17;107317;1255;99113;-66
2023/06/21 11:57:06;;;;;;;;;;;;;;;38.41;25.01;101204.88;107298;1257;112667;-68
2023/06/21 11:59:35;;;;;;;;;;;;;;;39.09;24.89;101201.16;107331;1257;109650;-67
2023/06/21 12:02:13;;;;;;;;;;;;;;;39.32;24.45;101203.75;107250;1256;106931;-66
2023/06/21 12:04:43;;;;;;;;;;;;;;;38.61;24.12;101199.98;107212;1257;99277;-69
2023/06/21 12:07:11;;;;;;;;;;;;;;;38.16;24.58;101199.00;107363;1257;99217;-67
2023/06/21 12:09:46;;;;;;;;;;;;;;;38.16;24.89;101195.92;107367;1257;113189;-67
2023/06/21 12:12:17;;;;;;;;;;;;;;;38.21;25.26;101199.17;107362;1257;110603;-68
2023/06/21 12:14:45;;;;;;;;;;;;;;;37.79;24.70;101205.36;107376;1254;108772;-68
2023/06/21 12:17:19;;;;;;;;;;;;;;;37.08;25.02;101205.30;107330;1256;99182;-68
2023/06/21 12:19:47;;;;;;;;;;;;;;;36.34;25.97;101202.59;107280;1257;99177;-69
2023/06/21 12:22:16;;;;;;;;;;;;;;;35.47;27.06;101204.84;107160;1256;114267;-72
2023/06/21 12:24:44;;;;;;;;;;;;;;;34.60;28.38;101198.94;107245;1259;109712;-69
2023/06/21 12:27:17;;;;;;;;;;;;;;;34.05;28.69;101202.14;107282;1257;109376;-69
2023/06/21 12:29:46;;;;;;;;;;;;;;;33.70;29.48;101201.00;107253;1255;99684;-69
2023/06/21 12:32:14;;;;;;;;;;;;;;;33.42;30.23;101202.75;107202;1255;99210;-67
2023/06/21 12:34:42;;;;;;;;;;;;;;;33.23;30.95;101202.70;107358;1254;112846;-69